Time;durP1;ratioP1;P1;durP2;ratioP2;P2;SDS_P1;SDS_P2;PMS_P1;PMS_P2;Temp;Humidity;BMP_temperature;BMP_pressure;BME280_temperature;BME280_humidity;BME280_pressure;Samples;Min_cycle;Max_cycle;Signal;HPM_P1;HPM_P2
2023/01/15 00:00:00;;;;;;;0.20;0.00;;;20.90;55.40;;;;;;5109873;28;20156;-60
2023/01/15 00:02:28;;;;;;;0.20;0.00;;;20.90;55.40;;;;;;5105712;28;20067;-60
2023/01/15 00:04:55;;;;;;;0.10;0.05;;;20.90;55.40;;;;;;5109710;28;20158;-61
2023/01/15 00:07:22;;;;;;;1.70;0.00;;;20.80;55.30;;;;;;5107584;28;20039;-60
2023/01/15 00:09:50;;;;;;;0.90;0.40;;;20.80;55.20;;;;;;5109641;28;20074;-58
2023/01/15 00:12:17;;;;;;;0.05;0.00;;;20.80;55.30;;;;;;5109114;28;20047;-59
2023/01/15 00:14:44;;;;;;;1.27;0.08;;;20.80;55.20;;;;;;5109528;28;20048;-58
2023/01/15 00:17:11;;;;;;;0.30;0.00;;;20.80;55.20;;;;;;5109689;28;20403;-61
2023/01/15 00:19:40;;;;;;;0.77;0.00;;;20.80;55.20;;;;;;5109609;28;20044;-59
2023/01/15 00:22:07;;;;;;;0.00;0.00;;;20.80;55.20;;;;;;5109345;28;20058;-60
2023/01/15 00:30:03;;;;;;;3.38;0.63;;;20.80;55.20;;;;;;5090595;28;20040;-59
2023/01/15 00:32:30;;;;;;;0.10;0.00;;;20.70;55.20;;;;;;5103379;28;20071;-58
2023/01/15 00:34:59;;;;;;;0.90;0.10;;;20.70;55.10;;;;;;5088537;28;20049;-58
2023/01/15 00:37:28;;;;;;;1.27;0.00;;;20.70;55.00;;;;;;5088434;28;20085;-58
2023/01/15 00:39:55;;;;;;;1.05;0.28;;;20.70;54.80;;;;;;5070013;28;20308;-57
2023/01/15 00:42:22;;;;;;;0.80;0.80;;;20.70;54.80;;;;;;5096244;28;20047;-54
2023/01/15 00:44:49;;;;;;;0.35;0.10;;;20.70;54.40;;;;;;5108290;28;20507;-57
2023/01/15 00:47:16;;;;;;;1.20;0.10;;;20.70;54.40;;;;;;5108729;28;20080;-57
2023/01/15 00:49:43;;;;;;;0.98;0.10;;;20.70;54.40;;;;;;5108785;28;20138;-57
2023/01/15 00:52:12;;;;;;;4.22;0.00;;;20.70;54.60;;;;;;5108513;28;20128;-58
2023/01/15 00:54:39;;;;;;;0.10;0.10;;;20.70;54.50;;;;;;5108316;28;20051;-56
2023/01/15 00:57:06;;;;;;;0.43;0.28;;;20.60;54.50;;;;;;5088001;28;20044;-57
2023/01/15 00:59:33;;;;;;;0.43;0.00;;;20.60;54.60;;;;;;5105614;28;20504;-57
2023/01/15 01:02:00;;;;;;;2.75;0.00;;;20.60;54.50;;;;;;5088799;28;20059;-57
2023/01/15 01:04:28;;;;;;;0.10;0.10;;;20.60;54.50;;;;;;5086883;28;20039;-56
2023/01/15 01:06:55;;;;;;;0.73;0.10;;;20.60;54.60;;;;;;5087520;28;20151;-56
2023/01/15 01:09:24;;;;;;;0.10;0.00;;;20.50;54.50;;;;;;5087453;28;20116;-56
2023/01/15 01:11:51;;;;;;;1.63;0.00;;;20.50;54.40;;;;;;5087813;28;20040;-57
2023/01/15 01:14:18;;;;;;;0.80;0.00;;;20.50;54.40;;;;;;5069371;28;20052;-57
2023/01/15 01:16:45;;;;;;;0.43;0.00;;;20.50;54.50;;;;;;5087529;28;20044;-56
2023/01/15 01:19:15;;;;;;;0.63;0.10;;;20.50;54.40;;;;;;5087987;28;20210;-55
2023/01/15 01:21:44;;;;;;;0.10;0.00;;;20.40;54.30;;;;;;5087776;28;20052;-56
2023/01/15 01:24:13;;;;;;;0.00;0.00;;;20.40;54.50;;;;;;5087713;28;20043;-57
2023/01/15 01:26:42;;;;;;;0.85;0.10;;;20.40;54.50;;;;;;5087096;28;20075;-56
2023/01/15 01:29:12;;;;;;;0.88;0.13;;;20.40;54.40;;;;;;5068898;28;20044;-55
2023/01/15 01:31:39;;;;;;;1.55;0.00;;;20.40;54.50;;;;;;5074772;28;20509;-55
2023/01/15 01:34:07;;;;;;;0.30;0.00;;;20.40;54.50;;;;;;5086020;28;20117;-55
2023/01/15 01:36:35;;;;;;;1.08;0.00;;;20.30;54.40;;;;;;5087308;28;20048;-54
2023/01/15 01:39:04;;;;;;;0.95;0.32;;;20.30;54.40;;;;;;5089153;28;20040;-56
2023/01/15 01:41:32;;;;;;;1.45;0.65;;;20.30;54.50;;;;;;5107659;28;20071;-55
2023/01/15 01:44:03;;;;;;;1.95;0.00;;;20.30;54.50;;;;;;5106861;28;20046;-56
2023/01/15 01:46:32;;;;;;;0.08;0.00;;;20.30;54.40;;;;;;5107719;28;20043;-55
2023/01/15 01:49:02;;;;;;;0.10;0.00;;;20.20;54.50;;;;;;5107588;28;20415;-55
2023/01/15 01:51:35;;;;;;;1.30;0.17;;;20.20;54.50;;;;;;5107532;28;20074;-55
2023/01/15 01:54:03;;;;;;;3.28;0.00;;;20.20;54.50;;;;;;5089075;28;20062;-55
2023/01/15 01:56:34;;;;;;;0.20;0.00;;;20.20;54.50;;;;;;5088673;28;20417;-56
2023/01/15 01:59:04;;;;;;;0.10;0.00;;;20.20;54.40;;;;;;5089052;28;20136;-57
2023/01/15 02:01:31;;;;;;;0.82;0.00;;;20.20;54.50;;;;;;5103724;28;20039;-58
2023/01/15 02:03:59;;;;;;;2.55;0.10;;;20.10;54.50;;;;;;5107343;28;20050;-55
2023/01/15 02:06:27;;;;;;;0.15;0.00;;;20.10;54.60;;;;;;5107527;28;20047;-56
2023/01/15 02:08:54;;;;;;;3.30;0.00;;;20.10;54.50;;;;;;5088728;28;20138;-55
2023/01/15 02:11:24;;;;;;;3.10;0.00;;;20.10;54.50;;;;;;5106723;28;20496;-55
2023/01/15 02:13:56;;;;;;;0.50;0.08;;;20.10;54.60;;;;;;5106788;28;20043;-55
2023/01/15 02:16:32;;;;;;;0.90;0.00;;;20.10;54.60;;;;;;5089011;28;20058;-55
2023/01/15 02:19:03;;;;;;;0.20;0.00;;;20.10;54.50;;;;;;5107116;28;20047;-55
2023/01/15 02:21:46;;;;;;;1.17;0.10;;;20.00;54.50;;;;;;5106923;28;20522;-58
2023/01/15 02:24:19;;;;;;;0.45;0.10;;;20.00;54.50;;;;;;5106755;28;20071;-58
2023/01/15 02:27:05;;;;;;;0.30;0.00;;;20.00;54.60;;;;;;5085937;28;20135;-58
2023/01/15 02:29:50;;;;;;;0.38;0.00;;;20.00;54.60;;;;;;5068116;28;20040;-59
2023/01/15 02:32:28;;;;;;;0.17;0.00;;;20.00;54.70;;;;;;5077176;28;20043;-59
2023/01/15 02:34:56;;;;;;;;;;;20.00;54.70;;;;;;5068446;28;20055;-57
2023/01/15 02:37:28;;;;;;;0.28;0.00;;;19.90;54.70;;;;;;5067929;28;20284;-57
2023/01/15 02:39:56;;;;;;;0.00;0.00;;;19.80;54.70;;;;;;5067503;28;20048;-56
2023/01/15 02:42:28;;;;;;;2.38;0.08;;;19.90;54.70;;;;;;5076671;28;20050;-55
2023/01/15 02:44:58;;;;;;;3.97;0.00;;;19.90;54.80;;;;;;5088366;28;20452;-62
2023/01/15 02:47:31;;;;;;;1.25;0.00;;;19.80;54.70;;;;;;5088023;28;20035;-55
2023/01/15 02:50:02;;;;;;;2.60;0.30;;;19.90;54.70;;;;;;5106387;28;20162;-57
2023/01/15 02:52:42;;;;;;;0.47;0.47;;;19.90;54.70;;;;;;5087980;28;20046;-57
2023/01/15 02:55:14;;;;;;;0.98;0.10;;;19.80;54.70;;;;;;5087389;28;20039;-56
2023/01/15 02:57:47;;;;;;;0.28;0.08;;;19.80;54.70;;;;;;5087942;28;20126;-55
2023/01/15 03:00:19;;;;;;;0.80;0.03;;;19.80;54.70;;;;;;5088077;28;20051;-56
2023/01/15 03:02:50;;;;;;;0.60;0.00;;;19.80;54.70;;;;;;5087820;28;20135;-54
2023/01/15 03:05:22;;;;;;;0.22;0.10;;;19.80;54.60;;;;;;5088056;28;20039;-54
2023/01/15 03:07:52;;;;;;;0.68;0.00;;;19.80;54.60;;;;;;5088008;28;20051;-54
2023/01/15 03:10:23;;;;;;;0.75;0.00;;;19.80;54.70;;;;;;5087576;28;20035;-54
2023/01/15 03:13:04;;;;;;;0.90;0.10;;;19.80;54.60;;;;;;5098382;28;20040;-62
2023/01/15 03:18:42;;;;;;;5.28;0.00;;;19.70;54.60;;;;;;5084383;28;20044;-56
2023/01/15 03:21:13;;;;;;;1.70;0.10;;;19.70;54.80;;;;;;5074427;28;20075;-57
2023/01/15 03:23:45;;;;;;;2.92;0.00;;;19.70;54.80;;;;;;5106075;28;20116;-57
2023/01/15 03:26:13;;;;;;;2.92;0.03;;;19.80;54.80;;;;;;5089455;28;20052;-56
2023/01/15 03:28:45;;;;;;;0.40;0.00;;;19.80;54.80;;;;;;5091934;28;20059;-56
2023/01/15 03:31:12;;;;;;;0.68;0.30;;;19.80;54.70;;;;;;5092214;28;20093;-55
2023/01/15 03:33:39;;;;;;;2.65;0.10;;;19.80;54.70;;;;;;5110461;28;20847;-56
2023/01/15 03:36:13;;;;;;;2.45;0.00;;;19.80;54.70;;;;;;5091725;28;20051;-54
2023/01/15 03:38:49;;;;;;;1.50;0.00;;;19.80;54.70;;;;;;5091387;28;20039;-56
2023/01/15 03:41:31;;;;;;;2.03;0.00;;;19.80;54.60;;;;;;5091363;28;20070;-56
2023/01/15 03:44:08;;;;;;;2.60;0.00;;;19.80;54.60;;;;;;5109958;28;20401;-57
2023/01/15 03:46:48;;;;;;;0.30;0.30;;;19.80;54.60;;;;;;5075153;28;20414;-55
2023/01/15 03:49:25;;;;;;;0.38;0.15;;;19.80;54.60;;;;;;5109371;28;20093;-56
2023/01/15 03:52:00;;;;;;;1.35;0.00;;;19.80;54.60;;;;;;5091742;28;20039;-57
2023/01/15 03:54:35;;;;;;;0.22;0.00;;;19.70;54.50;;;;;;5090715;28;20093;-56
2023/01/15 03:57:07;;;;;;;0.47;0.00;;;19.70;54.50;;;;;;5073018;28;20048;-54
2023/01/15 03:59:46;;;;;;;0.68;0.65;;;19.70;54.50;;;;;;5122691;27;20051;-56
2023/01/15 04:02:15;;;;;;;2.20;0.65;;;19.70;54.50;;;;;;5109791;28;20262;-55
2023/01/15 04:04:45;;;;;;;1.23;0.00;;;19.70;54.50;;;;;;5091288;28;20075;-53
2023/01/15 04:07:13;;;;;;;0.98;0.00;;;19.70;54.40;;;;;;5090881;28;20120;-56
2023/01/15 04:09:41;;;;;;;0.17;0.00;;;19.70;54.50;;;;;;5082700;28;20050;-55
2023/01/15 04:12:11;;;;;;;0.93;0.00;;;19.70;54.40;;;;;;5070825;28;20151;-50
2023/01/15 04:14:43;;;;;;;0.00;0.00;;;19.60;54.30;;;;;;5104900;28;20504;-54
2023/01/15 04:17:16;;;;;;;1.42;0.00;;;19.70;54.30;;;;;;5071005;28;20047;-55
2023/01/15 04:19:44;;;;;;;0.28;0.00;;;19.70;54.30;;;;;;5106199;28;20054;-55
2023/01/15 04:22:11;;;;;;;1.88;0.10;;;19.70;54.30;;;;;;5073822;28;20514;-55
2023/01/15 04:24:39;;;;;;;1.80;0.10;;;19.60;54.20;;;;;;5109743;28;20044;-54
2023/01/15 04:27:06;;;;;;;2.92;0.00;;;19.60;54.20;;;;;;5109535;28;20560;-51
2023/01/15 04:29:33;;;;;;;0.32;0.00;;;19.60;54.10;;;;;;5109598;28;20157;-55
2023/01/15 04:32:02;;;;;;;1.42;0.00;;;19.60;54.10;;;;;;5109535;28;20044;-55
2023/01/15 04:34:29;;;;;;;0.60;0.35;;;19.60;54.10;;;;;;5109295;28;20120;-56
2023/01/15 04:36:57;;;;;;;0.13;0.00;;;19.60;54.00;;;;;;5108822;28;20477;-56
2023/01/15 04:39:24;;;;;;;0.40;0.40;;;19.60;54.00;;;;;;5109385;28;20556;-56
2023/01/15 04:44:37;;;;;;;1.83;0.43;;;19.60;53.90;;;;;;5109162;28;20051;-55
2023/01/15 04:47:06;;;;;;;1.45;0.00;;;19.60;54.00;;;;;;5109413;28;20052;-56
2023/01/15 04:49:34;;;;;;;3.50;0.00;;;19.50;53.90;;;;;;5109032;28;20465;-56
2023/01/15 04:52:01;;;;;;;0.45;0.10;;;19.50;53.90;;;;;;5108725;28;20077;-54
2023/01/15 04:54:29;;;;;;;0.50;0.00;;;19.60;54.00;;;;;;5109194;28;20047;-58
2023/01/15 04:56:56;;;;;;;0.63;0.00;;;19.60;54.00;;;;;;5109082;28;20043;-52
2023/01/15 04:59:25;;;;;;;0.10;0.00;;;19.50;54.00;;;;;;5094458;28;20162;-56
2023/01/15 05:01:53;;;;;;;0.43;0.00;;;19.60;54.00;;;;;;5099435;28;20067;-56
2023/01/15 05:04:22;;;;;;;0.22;0.00;;;19.50;53.90;;;;;;5090735;28;20132;-56
2023/01/15 05:06:50;;;;;;;0.30;0.00;;;19.50;53.80;;;;;;5108569;28;20172;-56
2023/01/15 05:09:17;;;;;;;0.00;0.00;;;19.50;53.80;;;;;;5108598;28;20526;-54
2023/01/15 05:11:44;;;;;;;0.85;0.00;;;19.50;53.80;;;;;;5108430;28;20412;-52
2023/01/15 05:14:11;;;;;;;0.00;0.00;;;19.50;53.80;;;;;;5101494;28;20055;-55
2023/01/15 05:16:38;;;;;;;0.20;0.00;;;19.50;53.80;;;;;;5070029;28;20048;-56
2023/01/15 05:19:07;;;;;;;0.35;0.00;;;19.50;53.70;;;;;;5088448;28;20047;-55
2023/01/15 05:21:39;;;;;;;1.15;0.10;;;19.50;53.70;;;;;;5087879;28;20040;-56
2023/01/15 05:24:08;;;;;;;0.70;0.05;;;19.50;53.70;;;;;;5087835;28;20071;-55
2023/01/15 05:26:36;;;;;;;1.88;0.65;;;19.50;53.70;;;;;;5089279;28;20043;-54
2023/01/15 05:29:04;;;;;;;0.00;0.00;;;19.50;53.60;;;;;;5089988;28;20047;-57
2023/01/15 05:31:32;;;;;;;4.25;0.00;;;19.50;53.60;;;;;;5108145;28;20508;-58
2023/01/15 05:34:00;;;;;;;0.52;0.00;;;19.50;53.50;;;;;;5108167;28;20475;-58
2023/01/15 05:36:29;;;;;;;0.22;0.00;;;19.50;53.50;;;;;;5108058;28;20054;-58
2023/01/15 05:39:00;;;;;;;1.38;0.00;;;19.50;53.50;;;;;;5108091;28;20097;-57
2023/01/15 05:44:13;;;;;;;0.68;0.00;;;19.40;53.30;;;;;;5107171;28;20043;-57
2023/01/15 05:46:42;;;;;;;0.10;0.10;;;19.40;53.40;;;;;;5107236;28;20377;-56
2023/01/15 05:49:11;;;;;;;0.10;0.00;;;19.40;53.30;;;;;;5105937;28;20130;-55
2023/01/15 05:51:39;;;;;;;0.77;0.10;;;19.40;53.30;;;;;;5107680;28;20046;-57
2023/01/15 05:54:09;;;;;;;2.53;0.35;;;19.40;53.30;;;;;;5099049;28;20140;-58
2023/01/15 05:56:37;;;;;;;0.30;0.10;;;19.40;53.30;;;;;;5107435;28;20063;-57
2023/01/15 05:59:05;;;;;;;0.20;0.00;;;19.40;53.20;;;;;;5107376;28;20135;-57
2023/01/15 06:01:32;;;;;;;0.55;0.00;;;19.40;53.20;;;;;;5107300;28;20419;-57
2023/01/15 06:04:00;;;;;;;0.10;0.00;;;19.40;53.20;;;;;;5107149;28;20122;-57
2023/01/15 06:06:27;;;;;;;1.65;0.00;;;19.40;53.10;;;;;;5107767;28;20047;-56
2023/01/15 06:08:54;;;;;;;0.38;0.00;;;19.40;53.10;;;;;;5107377;28;20082;-55
2023/01/15 06:11:24;;;;;;;0.45;0.00;;;19.40;53.10;;;;;;5107090;28;20048;-55
2023/01/15 06:13:51;;;;;;;0.15;0.00;;;19.40;52.90;;;;;;5107141;28;20036;-54
2023/01/15 06:16:18;;;;;;;2.75;0.00;;;19.40;53.10;;;;;;5107442;28;20051;-57
2023/01/15 06:18:46;;;;;;;2.03;0.00;;;19.40;53.10;;;;;;5107112;28;20416;-56
2023/01/15 06:21:14;;;;;;;0.00;0.00;;;19.40;53.10;;;;;;5107327;28;20050;-54
2023/01/15 06:23:42;;;;;;;0.10;0.00;;;19.30;53.70;;;;;;5107299;28;20035;-54
2023/01/15 06:26:12;;;;;;;0.10;0.00;;;19.30;53.10;;;;;;5106800;28;20126;-57
2023/01/15 06:28:41;;;;;;;1.95;0.00;;;19.40;53.10;;;;;;5106715;28;20044;-56
2023/01/15 06:31:09;;;;;;;0.98;0.00;;;19.30;53.00;;;;;;5107021;28;20071;-55
2023/01/15 06:33:37;;;;;;;0.10;0.00;;;19.30;53.00;;;;;;5106659;28;20046;-55
2023/01/15 06:36:05;;;;;;;0.70;0.00;;;19.30;53.00;;;;;;5106476;28;20423;-56
2023/01/15 06:38:32;;;;;;;1.13;0.00;;;19.30;52.80;;;;;;5107144;28;20039;-54
2023/01/15 06:41:00;;;;;;;1.73;0.00;;;19.30;52.80;;;;;;5100045;28;20050;-59
2023/01/15 06:49:00;;;;;;;4.05;0.00;;;19.30;52.20;;;;;;5068203;28;20054;-61
2023/01/15 06:51:27;;;;;;;1.50;0.00;;;19.40;52.70;;;;;;5086475;28;20036;-61
2023/01/15 06:53:54;;;;;;;0.20;0.00;;;19.40;52.60;;;;;;5094079;28;20075;-64
2023/01/15 06:56:21;;;;;;;2.63;0.55;;;19.40;52.60;;;;;;5088223;28;20047;-56
2023/01/15 06:58:48;;;;;;;7.20;0.00;;;19.40;52.70;;;;;;5105819;28;20071;-62
2023/01/15 07:01:17;;;;;;;7.05;0.10;;;19.50;52.60;;;;;;5106106;28;20415;-68
2023/01/15 07:03:45;;;;;;;4.50;0.00;;;19.50;52.60;;;;;;5106535;28;20122;-56
2023/01/15 07:06:13;;;;;;;4.80;0.80;;;19.50;52.70;;;;;;5106580;28;20140;-53
2023/01/15 07:08:41;;;;;;;2.60;0.40;;;19.50;52.70;;;;;;5088541;28;20040;-48
2023/01/15 07:11:09;;;;;;;1.20;0.05;;;19.50;52.30;;;;;;5085767;28;20085;-46
2023/01/15 07:13:37;;;;;;;6.03;0.20;;;19.50;51.90;;;;;;5085940;28;20040;-49
2023/01/15 07:16:25;;;;;;;3.63;0.10;;;19.50;51.70;;;;;;5088313;28;20044;-48
2023/01/15 07:18:55;;;;;;;4.05;0.10;;;19.60;51.40;;;;;;5086006;28;20059;-48
2023/01/15 07:21:22;;;;;;;7.32;0.20;;;19.50;51.10;;;;;;5101778;28;20093;-47
2023/01/15 07:23:49;;;;;;;5.47;0.03;;;19.50;50.90;;;;;;5086134;28;20078;-49
2023/01/15 07:26:16;;;;;;;2.15;0.30;;;19.50;50.90;;;;;;5103028;28;20059;-49
2023/01/15 07:28:43;;;;;;;1.35;0.08;;;19.50;50.80;;;;;;5088126;28;20171;-52
2023/01/15 07:31:10;;;;;;;6.50;0.20;;;19.50;50.50;;;;;;5105932;28;20531;-50
2023/01/15 07:33:37;;;;;;;2.50;0.45;;;19.50;50.60;;;;;;5106547;28;20526;-51
2023/01/15 07:36:06;;;;;;;1.70;0.35;;;19.50;50.70;;;;;;5106451;28;20079;-47
2023/01/15 07:38:33;;;;;;;3.85;0.10;;;19.50;50.70;;;;;;5106445;28;20054;-47
2023/01/15 07:52:00;;;;;;;5.65;1.33;;;19.40;50.70;;;;;;5106136;28;20093;-49
2023/01/15 07:54:28;;;;;;;2.53;0.30;;;19.50;51.40;;;;;;5106151;28;20044;-48
2023/01/15 07:56:56;;;;;;;3.63;0.65;;;19.40;50.60;;;;;;5105687;28;20117;-49
2023/01/15 07:59:23;;;;;;;2.60;0.82;;;19.40;50.60;;;;;;5105832;28;20043;-45
2023/01/15 08:01:51;;;;;;;1.55;0.38;;;19.40;50.50;;;;;;5101219;28;20044;-49
2023/01/15 08:04:18;;;;;;;2.28;0.10;;;19.40;50.50;;;;;;5085784;28;20413;-46
2023/01/15 08:06:45;;;;;;;2.25;0.20;;;19.40;50.50;;;;;;5085635;28;20075;-48
2023/01/15 08:09:13;;;;;;;4.32;0.60;;;19.40;50.50;;;;;;5085617;28;20148;-48
2023/01/15 08:17:09;;;;;;;5.53;0.60;;;19.40;51.00;;;;;;5066501;28;20076;-49
2023/01/15 08:19:36;;;;;;;1.00;0.15;;;19.40;50.50;;;;;;5066438;28;20048;-51
2023/01/15 08:22:03;;;;;;;0.10;0.00;;;19.40;50.40;;;;;;5066358;28;20052;-48
2023/01/15 08:24:31;;;;;;;1.75;0.10;;;19.40;50.30;;;;;;5066479;28;20049;-46
2023/01/15 08:26:58;;;;;;;2.15;0.20;;;19.40;50.90;;;;;;5066055;28;20053;-49
2023/01/15 08:29:25;;;;;;;0.30;0.10;;;19.40;50.30;;;;;;5065688;28;20063;-45
2023/01/15 08:31:52;;;;;;;1.17;0.00;;;19.40;50.30;;;;;;5066029;28;20050;-47
2023/01/15 08:34:19;;;;;;;0.63;0.45;;;19.40;50.20;;;;;;5065608;28;20060;-47
2023/01/15 08:36:48;;;;;;;3.00;0.22;;;19.40;50.20;;;;;;5062429;28;20041;-49
2023/01/15 08:39:15;;;;;;;0.93;0.30;;;19.40;50.30;;;;;;5046044;28;20163;-52
2023/01/15 08:41:43;;;;;;;0.73;0.10;;;19.40;50.20;;;;;;5048752;28;20135;-45
2023/01/15 08:44:11;;;;;;;3.40;0.10;;;19.40;50.10;;;;;;5065312;28;20098;-49
2023/01/15 08:46:38;;;;;;;0.88;0.00;;;19.30;50.10;;;;;;5065575;28;20491;-45
2023/01/15 08:49:05;;;;;;;0.68;0.20;;;19.40;50.10;;;;;;5066010;28;20123;-49
2023/01/15 08:51:32;;;;;;;1.65;0.20;;;19.40;50.00;;;;;;5065925;28;20040;-47
2023/01/15 08:53:59;;;;;;;0.30;0.00;;;19.40;50.00;;;;;;5071605;28;20458;-48
2023/01/15 08:56:26;;;;;;;2.53;0.20;;;19.30;49.90;;;;;;5107079;28;20122;-47
2023/01/15 08:58:54;;;;;;;2.30;0.10;;;19.30;49.90;;;;;;5108571;28;20043;-46
2023/01/15 09:01:21;;;;;;;1.48;0.10;;;19.30;49.80;;;;;;5108954;28;20173;-48
2023/01/15 09:03:48;;;;;;;0.75;0.15;;;19.30;49.80;;;;;;5090719;28;20047;-46
2023/01/15 09:06:15;;;;;;;1.45;0.00;;;19.30;49.90;;;;;;5088586;28;20040;-46
2023/01/15 09:08:42;;;;;;;2.28;0.20;;;19.30;49.90;;;;;;5088391;28;20048;-49
2023/01/15 09:11:11;;;;;;;1.55;0.00;;;19.40;49.90;;;;;;5088218;28;20059;-49
2023/01/15 09:13:38;;;;;;;0.70;0.10;;;19.40;49.90;;;;;;5088423;28;20066;-47
2023/01/15 09:16:08;;;;;;;1.13;0.10;;;19.40;49.90;;;;;;5088184;28;20044;-48
2023/01/15 09:18:37;;;;;;;0.68;0.10;;;19.40;49.80;;;;;;5088469;28;20866;-54
2023/01/15 09:21:05;;;;;;;2.42;0.00;;;19.40;49.80;;;;;;5088578;28;20046;-52
2023/01/15 09:23:32;;;;;;;4.28;0.10;;;19.40;49.70;;;;;;5087351;28;20052;-47
2023/01/15 09:26:01;;;;;;;1.13;0.00;;;19.40;49.70;;;;;;5105459;28;20039;-52
2023/01/15 09:28:29;;;;;;;0.55;0.10;;;19.40;49.70;;;;;;5108539;28;20380;-51
2023/01/15 09:30:56;;;;;;;0.57;0.03;;;19.40;49.60;;;;;;5108208;28;20043;-49
2023/01/15 09:33:24;;;;;;;1.60;0.10;;;19.40;49.50;;;;;;5108365;28;20093;-51
2023/01/15 09:35:52;;;;;;;1.35;0.20;;;19.40;49.40;;;;;;5108148;28;20562;-49
2023/01/15 09:38:21;;;;;;;1.48;0.20;;;19.40;49.40;;;;;;5108470;28;20597;-49
2023/01/15 09:40:51;;;;;;;1.13;0.20;;;19.40;49.30;;;;;;5107698;28;20046;-48
2023/01/15 09:43:37;;;;;;;0.60;0.00;;;19.40;49.30;;;;;;5107949;28;20118;-51
2023/01/15 09:46:10;;;;;;;1.98;0.25;;;19.40;49.20;;;;;;5107566;28;20877;-53
2023/01/15 09:48:50;;;;;;;0.85;0.20;;;19.40;49.30;;;;;;5108005;28;20044;-48
2023/01/15 09:51:27;;;;;;;0.20;0.10;;;19.40;49.10;;;;;;5096684;28;20128;-48
2023/01/15 09:54:20;;;;;;;3.53;0.55;;;19.40;49.00;;;;;;5095407;28;20075;-53
2023/01/15 09:56:47;;;;;;;0.70;0.00;;;19.50;48.90;;;;;;5086427;28;20050;-50
2023/01/15 09:59:22;;;;;;;4.95;0.30;;;19.40;48.70;;;;;;5086122;28;20036;-49
2023/01/15 10:01:50;;;;;;;1.05;0.70;;;19.50;48.60;;;;;;5097767;28;20735;-47
2023/01/15 10:04:29;;;;;;;1.65;0.10;;;19.40;48.50;;;;;;5107921;28;20062;-50
2023/01/15 10:07:05;;;;;;;1.52;0.10;;;19.50;48.20;;;;;;5107927;28;20090;-50
2023/01/15 10:09:36;;;;;;;;;;;19.50;48.10;;;;;;5089565;28;20040;-48
2023/01/15 10:15:05;;;;;;;1.50;0.05;;;19.40;48.20;;;;;;5107576;28;20043;-49
2023/01/15 10:17:40;;;;;;;0.82;0.05;;;19.40;48.00;;;;;;5088661;28;20050;-49
2023/01/15 10:20:15;;;;;;;1.33;0.10;;;19.50;48.00;;;;;;5107587;28;20128;-51
2023/01/15 10:23:00;;;;;;;0.68;0.43;;;19.50;47.70;;;;;;5107420;28;20511;-48
2023/01/15 10:25:33;;;;;;;2.13;0.10;;;19.50;47.60;;;;;;5088660;28;20071;-48
2023/01/15 10:28:09;;;;;;;2.47;0.10;;;19.50;47.50;;;;;;5107157;28;20191;-52
2023/01/15 10:30:42;;;;;;;0.22;0.10;;;19.50;47.30;;;;;;5107248;28;20126;-51
2023/01/15 10:33:26;;;;;;;2.28;0.20;;;19.50;47.20;;;;;;5107457;28;20097;-50
2023/01/15 10:35:59;;;;;;;1.88;0.10;;;19.60;47.10;;;;;;5107086;28;20491;-49
2023/01/15 10:38:33;;;;;;;3.40;0.52;;;19.60;46.90;;;;;;5106721;28;20287;-51
2023/01/15 10:41:16;;;;;;;0.70;0.10;;;19.60;46.60;;;;;;5107187;28;20057;-47
2023/01/15 10:43:49;;;;;;;1.00;0.10;;;19.70;46.40;;;;;;5107281;28;20036;-53
2023/01/15 10:46:18;;;;;;;2.60;0.20;;;19.70;46.50;;;;;;5106858;28;20071;-48
2023/01/15 10:48:47;;;;;;;1.75;0.10;;;19.70;46.50;;;;;;5106714;28;20053;-53
2023/01/15 10:51:19;;;;;;;0.65;0.00;;;19.70;46.50;;;;;;5107075;28;20088;-51
2023/01/15 10:53:50;;;;;;;2.88;0.05;;;19.80;46.50;;;;;;5106821;28;20095;-49
2023/01/15 10:56:28;;;;;;;1.08;0.00;;;19.70;46.30;;;;;;5106865;28;20054;-49
2023/01/15 10:59:01;;;;;;;0.68;0.10;;;19.80;46.20;;;;;;5088577;28;20096;-50
2023/01/15 11:01:28;;;;;;;0.40;0.10;;;19.80;45.90;;;;;;5106966;28;20040;-50
2023/01/15 11:03:55;;;;;;;2.50;0.20;;;19.80;45.90;;;;;;5106960;28;20043;-52
2023/01/15 11:06:24;;;;;;;2.17;0.10;;;19.90;45.70;;;;;;5106758;28;20519;-49
2023/01/15 11:08:53;;;;;;;0.30;0.20;;;19.90;45.60;;;;;;5106472;28;20055;-47
2023/01/15 11:19:52;;;;;;;2.20;0.20;;;20.00;45.80;;;;;;5063504;28;20131;-50
2023/01/15 11:22:21;;;;;;;1.13;0.10;;;20.00;45.20;;;;;;5063203;28;20138;-48
2023/01/15 11:24:51;;;;;;;1.65;0.15;;;20.00;45.20;;;;;;5063456;28;20059;-52
2023/01/15 11:27:20;;;;;;;2.25;0.13;;;20.10;45.20;;;;;;5056502;28;20163;-52
2023/01/15 11:29:52;;;;;;;0.30;0.10;;;20.10;45.10;;;;;;5046047;28;20162;-48
2023/01/15 11:32:28;;;;;;;0.50;0.08;;;20.20;45.00;;;;;;5057804;28;20991;-49
2023/01/15 11:34:57;;;;;;;2.42;0.50;;;20.20;45.00;;;;;;5063017;28;20063;-48
2023/01/15 11:37:26;;;;;;;1.00;0.10;;;20.20;45.00;;;;;;5063072;28;20226;-49
2023/01/15 11:39:55;;;;;;;2.42;0.22;;;20.30;44.90;;;;;;5063477;28;20048;-49
2023/01/15 11:50:52;;;;;;;0.05;0.00;;;20.40;44.80;;;;;;5066431;28;20151;-49
2023/01/15 11:53:23;;;;;;;1.02;0.10;;;20.40;44.60;;;;;;5076174;28;20082;-49
2023/01/15 11:55:58;;;;;;;1.85;0.10;;;20.50;44.60;;;;;;5110401;28;20515;-50
2023/01/15 11:58:27;;;;;;;1.70;0.13;;;20.50;44.70;;;;;;5110234;28;20035;-50
2023/01/15 12:00:55;;;;;;;2.20;0.03;;;20.50;44.70;;;;;;5110014;28;20504;-50
2023/01/15 12:03:27;;;;;;;1.67;0.10;;;20.50;44.60;;;;;;5110531;28;20450;-47
2023/01/15 12:05:58;;;;;;;2.03;0.10;;;20.60;44.80;;;;;;5109875;28;20050;-50
2023/01/15 12:08:41;;;;;;;1.45;0.20;;;20.60;44.70;;;;;;5091946;28;20035;-51
2023/01/15 12:11:19;;;;;;;1.98;0.90;;;20.70;44.70;;;;;;5109926;28;20092;-50
2023/01/15 12:13:55;;;;;;;0.80;0.15;;;20.70;44.60;;;;;;5110087;28;20049;-50
2023/01/15 12:16:30;;;;;;;2.20;0.10;;;20.70;44.50;;;;;;5094824;28;20139;-49
2023/01/15 12:18:59;;;;;;;0.28;0.03;;;20.70;44.50;;;;;;5089595;28;20601;-49
2023/01/15 12:21:46;;;;;;;0.25;0.10;;;20.80;44.50;;;;;;5089193;28;20567;-50
2023/01/15 12:24:29;;;;;;;1.88;0.10;;;20.80;44.30;;;;;;5089503;28;20055;-54
2023/01/15 12:27:09;;;;;;;0.63;0.10;;;20.80;44.30;;;;;;5089192;28;20048;-50
2023/01/15 12:29:41;;;;;;;0.30;0.10;;;20.90;44.30;;;;;;5089232;28;20086;-48
2023/01/15 12:32:13;;;;;;;1.42;0.00;;;20.90;44.20;;;;;;5102244;28;20082;-49
2023/01/15 12:34:49;;;;;;;0.25;0.03;;;20.90;44.20;;;;;;5109050;28;20081;-49
2023/01/15 12:37:21;;;;;;;1.38;0.20;;;21.00;44.10;;;;;;5109330;28;20038;-49
2023/01/15 12:39:53;;;;;;;1.02;0.00;;;21.00;44.00;;;;;;5109513;28;20143;-48
2023/01/15 12:45:12;;;;;;;1.15;0.10;;;21.00;43.90;;;;;;5109258;28;20136;-50
2023/01/15 12:47:44;;;;;;;1.10;0.00;;;21.10;43.90;;;;;;5109182;28;20085;-48
2023/01/15 12:50:28;;;;;;;0.15;0.00;;;21.10;43.90;;;;;;5108770;28;20042;-51
2023/01/15 12:53:03;;;;;;;3.35;0.10;;;21.10;43.60;;;;;;5108788;28;20072;-48
2023/01/15 12:55:37;;;;;;;0.75;0.00;;;21.20;43.70;;;;;;5099293;28;20047;-45
2023/01/15 12:58:10;;;;;;;2.35;0.17;;;21.20;43.70;;;;;;5108310;28;20136;-51
2023/01/15 13:00:42;;;;;;;0.13;0.00;;;21.20;43.60;;;;;;5109028;28;20039;-51
2023/01/15 13:03:22;;;;;;;1.23;0.32;;;21.20;43.50;;;;;;5105591;28;20139;-45
2023/01/15 13:05:53;;;;;;;0.52;0.52;;;21.20;43.50;;;;;;5088572;28;20090;-49
2023/01/15 13:08:27;;;;;;;2.08;0.05;;;21.30;43.50;;;;;;5088639;28;20098;-49
2023/01/15 13:10:55;;;;;;;1.33;0.17;;;21.40;43.50;;;;;;5070389;28;20101;-49
2023/01/15 13:13:24;;;;;;;0.10;0.00;;;21.40;43.40;;;;;;5088356;28;20040;-47
2023/01/15 13:16:13;;;;;;;0.20;0.00;;;21.40;43.30;;;;;;5088368;28;20092;-48
2023/01/15 13:18:51;;;;;;;0.88;0.10;;;21.40;43.20;;;;;;5088049;28;20044;-47
2023/01/15 13:21:20;;;;;;;0.10;0.00;;;21.50;43.20;;;;;;5088379;28;20067;-49
2023/01/15 13:24:16;;;;;;;0.88;0.10;;;21.50;43.10;;;;;;5088193;28;20090;-47
2023/01/15 13:27:13;;;;;;;2.83;1.03;;;21.50;42.70;;;;;;5088091;28;20504;-50
2023/01/15 13:29:53;;;;;;;0.95;0.00;;;21.50;42.70;;;;;;5087310;28;20044;-49
2023/01/15 13:32:23;;;;;;;1.10;0.10;;;21.50;42.80;;;;;;5102420;28;20093;-51
2023/01/15 13:34:54;;;;;;;0.57;0.10;;;21.50;42.70;;;;;;5108127;28;20058;-48
2023/01/15 13:37:26;;;;;;;0.77;0.10;;;21.60;42.70;;;;;;5107747;28;20035;-50
2023/01/15 13:39:57;;;;;;;1.08;0.05;;;21.60;42.80;;;;;;5074630;28;20120;-47
2023/01/15 13:42:34;;;;;;;2.00;0.17;;;21.60;42.70;;;;;;5096426;28;20044;-49
2023/01/15 13:45:17;;;;;;;0.50;0.13;;;21.60;42.70;;;;;;5108382;28;20036;-47
2023/01/15 13:47:47;;;;;;;2.33;0.10;;;21.60;42.60;;;;;;5104179;28;20047;-50
2023/01/15 13:50:17;;;;;;;0.70;0.10;;;21.60;42.60;;;;;;5108523;28;20039;-51
2023/01/15 13:52:45;;;;;;;0.30;0.10;;;21.70;42.60;;;;;;5107466;28;20737;-48
2023/01/15 13:55:21;;;;;;;1.40;0.22;;;21.70;42.50;;;;;;5108209;28;20043;-54
2023/01/15 13:57:49;;;;;;;0.13;0.00;;;21.70;42.20;;;;;;5105431;28;20068;-48
2023/01/15 14:00:32;;;;;;;0.10;0.10;;;21.70;42.20;;;;;;5107925;28;20035;-49
2023/01/15 14:03:01;;;;;;;0.35;0.10;;;21.70;41.80;;;;;;5107805;28;20525;-48